Time;durP1;ratioP1;P1;durP2;ratioP2;P2;SDS_P1;SDS_P2;PMS_P1;PMS_P2;Temp;Humidity;BMP_temperature;BMP_pressure;BME280_temperature;BME280_humidity;BME280_pressure;Samples;Min_cycle;Max_cycle;Signal;HPM_P1;HPM_P2
2023/11/06 00:01:37;;;;;;;2.25;1.90;;;;;;;6.02;100.00;95963.31;5017432;28;20401;-78
2023/11/06 00:04:05;;;;;;;3.35;1.90;;;;;;;6.04;100.00;95961.22;5015258;28;20431;-78
2023/11/06 00:06:31;;;;;;;2.50;1.83;;;;;;;6.05;100.00;95964.63;5015258;28;20435;-77
2023/11/06 00:08:57;;;;;;;3.90;1.67;;;;;;;6.03;100.00;95962.25;5014066;28;20409;-78
2023/11/06 00:11:23;;;;;;;1.80;1.70;;;;;;;6.02;100.00;95965.94;5014230;28;20895;-78
2023/11/06 00:13:49;;;;;;;4.00;2.22;;;;;;;6.00;100.00;95964.63;5025920;28;20395;-78
2023/11/06 00:16:16;;;;;;;5.17;2.17;;;;;;;5.98;100.00;95962.25;5033675;28;20442;-77
2023/11/06 00:18:44;;;;;;;3.72;2.15;;;;;;;5.97;100.00;95952.78;5033635;28;20398;-77
2023/11/06 00:21:12;;;;;;;3.20;2.17;;;;;;;5.98;100.00;95950.94;5033344;28;20880;-77
2023/11/06 00:23:39;;;;;;;3.50;2.30;;;;;;;5.95;100.00;95944.38;5033147;28;20426;-78
2023/11/06 00:26:06;;;;;;;4.50;2.20;;;;;;;5.95;100.00;95949.63;5033629;28;20940;-78
2023/11/06 00:28:32;;;;;;;4.00;2.37;;;;;;;5.92;100.00;95951.97;5033628;28;20395;-78
2023/11/06 00:30:58;;;;;;;2.53;2.13;;;;;;;5.87;100.00;95951.91;5033390;28;20396;-77
2023/11/06 00:33:24;;;;;;;3.00;2.10;;;;;;;5.80;100.00;95960.81;5022063;28;20421;-78
2023/11/06 00:35:50;;;;;;;4.00;2.22;;;;;;;5.76;100.00;95964.22;5013931;28;20404;-77
2023/11/06 00:38:18;;;;;;;7.38;2.90;;;;;;;5.74;100.00;95953.97;5014459;28;20889;-77
2023/11/06 00:40:45;;;;;;;3.88;2.47;;;;;;;5.79;100.00;95963.69;4997267;28;20959;-78
2023/11/06 00:43:12;;;;;;;9.35;3.28;;;;;;;5.86;100.00;95960.84;5014115;28;20405;-78
2023/11/06 00:45:38;;;;;;;6.93;3.00;;;;;;;5.93;100.00;95970.13;5033081;28;20403;-78
2023/11/06 00:48:06;;;;;;;6.50;2.90;;;;;;;5.99;100.00;95968.28;5035336;28;20419;-78
2023/11/06 00:50:33;;;;;;;7.32;2.42;;;;;;;6.01;100.00;95972.25;5036974;28;20482;-77
2023/11/06 00:52:59;;;;;;;6.43;3.33;;;;;;;6.03;100.00;95971.97;5036976;28;20418;-79
2023/11/06 00:55:27;;;;;;;8.02;2.65;;;;;;;6.02;100.00;95971.19;5037360;28;20445;-78
2023/11/06 00:57:53;;;;;;;14.02;3.22;;;;;;;5.98;100.00;95974.59;5019361;28;20505;-77
2023/11/06 01:00:22;;;;;;;4.82;2.53;;;;;;;5.95;100.00;95990.84;5043152;28;20399;-78
2023/11/06 01:02:48;;;;;;;4.43;2.57;;;;;;;5.90;100.00;95986.38;5038890;28;20403;-78
2023/11/06 01:05:15;;;;;;;14.27;3.58;;;;;;;5.86;100.00;95998.41;5037252;28;20453;-77
2023/11/06 01:07:42;;;;;;;6.37;2.93;;;;;;;5.84;100.00;95993.41;5037838;28;20443;-78
2023/11/06 01:10:08;;;;;;;13.68;3.22;;;;;;;5.84;100.00;95990.00;5037355;28;20429;-78
2023/11/06 01:12:36;;;;;;;11.45;3.97;;;;;;;5.83;100.00;95986.56;5037242;28;20414;-77
2023/11/06 01:15:02;;;;;;;6.00;2.97;;;;;;;5.80;100.00;95981.81;5037562;28;20399;-78
2023/11/06 01:17:30;;;;;;;12.15;3.80;;;;;;;5.80;100.00;95981.81;5038625;28;20391;-77
2023/11/06 01:19:56;;;;;;;5.83;2.77;;;;;;;5.83;100.00;95996.28;5029445;28;20781;-78
2023/11/06 01:22:22;;;;;;;5.57;2.60;;;;;;;5.80;100.00;95994.94;5017508;28;20411;-78
2023/11/06 01:24:48;;;;;;;4.23;2.40;;;;;;;5.75;100.00;95996.75;5017229;28;20401;-78
2023/11/06 01:27:14;;;;;;;5.38;2.60;;;;;;;5.70;100.00;96002.78;5017282;28;20496;-78
2023/11/06 01:29:42;;;;;;;20.80;4.45;;;;;;;5.74;100.00;96018.81;5017159;28;20405;-77
2023/11/06 01:32:08;;;;;;;8.57;3.17;;;;;;;5.76;100.00;96011.47;5015665;28;20505;-77
2023/11/06 01:34:34;;;;;;;9.18;3.40;;;;;;;5.78;100.00;96007.56;5016730;28;20484;-78
2023/11/06 01:37:00;;;;;;;10.07;3.27;;;;;;;5.79;100.00;96010.94;5016818;28;20405;-77
2023/11/06 01:39:26;;;;;;;5.93;3.10;;;;;;;5.79;100.00;96010.94;5016806;28;20900;-78
2023/11/06 01:41:52;;;;;;;4.07;2.50;;;;;;;5.76;100.00;96003.59;5016833;28;20443;-78
2023/11/06 01:44:18;;;;;;;4.80;2.60;;;;;;;5.72;100.00;96005.94;5017647;28;20436;-78
2023/11/06 01:46:46;;;;;;;10.77;3.70;;;;;;;5.73;100.00;96004.88;5018468;28;20393;-77
2023/11/06 01:49:15;;;;;;;10.55;3.40;;;;;;;5.73;100.00;96004.88;5020340;28;20467;-77
2023/11/06 01:51:41;;;;;;;10.05;3.28;;;;;;;5.73;100.00;95994.38;5017141;28;20852;-78
2023/11/06 01:54:10;;;;;;;8.88;3.22;;;;;;;5.73;100.00;95997.00;5017390;28;20404;-78
2023/11/06 01:56:38;;;;;;;10.40;3.38;;;;;;;5.78;100.00;96007.56;5019357;28;20397;-77
2023/11/06 01:59:04;;;;;;;6.78;3.00;;;;;;;5.79;100.00;96001.25;5018849;28;20401;-78
2023/11/06 02:01:35;;;;;;;5.13;2.60;;;;;;;5.79;100.00;96008.31;5016987;28;20411;-77
2023/11/06 02:04:06;;;;;;;9.13;3.13;;;;;;;5.80;100.00;96025.66;5016875;28;20487;-77
2023/11/06 02:06:32;;;;;;;8.60;3.03;;;;;;;5.81;100.00;96024.63;5016529;28;20397;-77
2023/11/06 02:08:58;;;;;;;10.43;3.20;;;;;;;5.84;100.00;96035.44;5017165;28;20838;-78
2023/11/06 02:11:25;;;;;;;9.90;3.17;;;;;;;5.86;100.00;96037.81;5016472;28;20405;-77
2023/11/06 02:13:51;;;;;;;5.70;2.80;;;;;;;5.90;100.00;96035.47;5016365;28;20396;-78
2023/11/06 02:16:19;;;;;;;5.10;2.80;;;;;;;5.94;100.00;96044.44;5016496;28;20448;-78
2023/11/06 02:18:45;;;;;;;9.40;3.30;;;;;;;5.95;100.00;96040.75;5017193;28;20440;-78
2023/11/06 02:21:13;;;;;;;9.18;3.30;;;;;;;5.95;100.00;96036.28;5017556;28;20454;-78
2023/11/06 02:23:42;;;;;;;4.72;2.60;;;;;;;5.93;100.00;96040.22;5017489;28;20511;-78
2023/11/06 02:26:09;;;;;;;7.80;2.70;;;;;;;5.91;100.00;96050.19;5017881;28;20484;-79
2023/11/06 02:28:35;;;;;;;8.88;2.80;;;;;;;5.89;100.00;96052.28;5018112;28;20397;-78
2023/11/06 02:31:02;;;;;;;14.05;3.20;;;;;;;5.84;100.00;96056.44;5019822;28;20401;-78
2023/11/06 02:33:28;;;;;;;5.77;2.43;;;;;;;5.82;100.00;96055.09;5029071;28;20441;-78
2023/11/06 02:35:55;;;;;;;5.68;2.22;;;;;;;5.76;100.00;96051.66;5037073;28;20763;-78
2023/11/06 02:38:21;;;;;;;8.95;2.50;;;;;;;5.74;100.00;96071.31;5037039;28;20402;-77
2023/11/06 02:40:48;;;;;;;8.93;3.30;;;;;;;5.73;100.00;96057.41;5036392;28;20954;-78
2023/11/06 02:43:14;;;;;;;6.68;2.83;;;;;;;5.71;100.00;96059.47;5036840;28;20410;-78
2023/11/06 02:45:41;;;;;;;5.05;2.30;;;;;;;5.70;100.00;96063.16;5036663;28;20462;-78
2023/11/06 02:48:08;;;;;;;6.13;2.53;;;;;;;5.67;100.00;96066.28;5018663;28;20446;-78
2023/11/06 02:50:34;;;;;;;3.83;2.30;;;;;;;5.63;100.00;96065.22;5036938;28;20426;-78
2023/11/06 02:53:00;;;;;;;8.02;2.40;;;;;;;5.60;100.00;96072.78;5036088;28;20843;-78
2023/11/06 02:55:26;;;;;;;6.90;2.33;;;;;;;5.58;100.00;96065.16;5039601;28;20499;-78
2023/11/06 02:57:54;;;;;;;4.68;2.30;;;;;;;5.56;100.00;96072.53;5037693;28;20407;-79
2023/11/06 03:00:21;;;;;;;5.45;2.33;;;;;;;5.55;100.00;96067.50;5036166;28;20957;-79
2023/11/06 03:02:47;;;;;;;4.90;2.20;;;;;;;5.54;100.00;96073.81;5035901;28;20399;-78
2023/11/06 03:05:14;;;;;;;5.68;2.60;;;;;;;5.52;100.00;96068.78;5035477;28;20562;-77
2023/11/06 03:07:41;;;;;;;6.78;2.20;;;;;;;5.53;100.00;96085.34;5035668;28;20395;-77
2023/11/06 03:10:08;;;;;;;5.45;2.20;;;;;;;5.51;100.00;96084.78;5034424;28;20435;-77
2023/11/06 03:12:34;;;;;;;5.03;2.10;;;;;;;5.51;100.00;96093.44;5034939;28;20465;-78
2023/11/06 03:15:02;;;;;;;3.53;2.40;;;;;;;5.50;100.00;96101.56;5035364;28;20760;-77
2023/11/06 03:17:28;;;;;;;3.97;2.00;;;;;;;5.48;100.00;96098.44;5035699;28;20465;-78
2023/11/06 03:19:54;;;;;;;3.00;1.80;;;;;;;5.42;100.00;96102.81;5035739;28;20902;-78
2023/11/06 03:22:22;;;;;;;2.67;1.75;;;;;;;5.38;100.00;96104.38;5036082;28;20887;-77
2023/11/06 03:24:49;;;;;;;5.17;2.20;;;;;;;5.38;100.00;96109.63;5035931;28;20417;-77
2023/11/06 03:27:15;;;;;;;3.08;1.98;;;;;;;5.41;100.00;96122.25;5035074;28;20449;-77
2023/11/06 03:29:41;;;;;;;4.18;2.83;;;;;;;5.42;100.00;96131.69;5035135;28;20406;-78
2023/11/06 03:32:09;;;;;;;7.07;2.40;;;;;;;5.48;100.00;96137.78;5034339;28;20511;-78
2023/11/06 03:34:35;;;;;;;3.42;2.10;;;;;;;5.56;100.00;96139.97;5015154;28;20408;-78
2023/11/06 03:37:03;;;;;;;7.05;2.30;;;;;;;5.63;100.00;96145.81;5015530;28;20401;-78
2023/11/06 03:39:29;;;;;;;10.82;3.08;;;;;;;5.67;100.00;96147.66;5015386;28;20397;-78
2023/11/06 03:41:55;;;;;;;6.07;2.28;;;;;;;5.72;100.00;96155.56;5015791;28;20932;-77
2023/11/06 03:44:21;;;;;;;3.08;2.05;;;;;;;5.72;100.00;96152.94;5024511;28;20490;-78
2023/11/06 03:46:48;;;;;;;3.42;1.83;;;;;;;5.73;100.00;96156.38;5034316;28;20494;-78
2023/11/06 03:49:15;;;;;;;2.20;1.90;;;;;;;5.77;100.00;96168.75;5034514;28;20415;-77
2023/11/06 03:51:41;;;;;;;4.50;2.17;;;;;;;5.82;100.00;96171.41;5034215;28;20391;-78
2023/11/06 03:54:08;;;;;;;3.00;1.77;;;;;;;5.89;100.00;96173.06;5034276;28;20458;-78
2023/11/06 03:56:34;;;;;;;4.40;1.87;;;;;;;5.94;100.00;96181.78;5034280;28;20417;-77
2023/11/06 03:59:01;;;;;;;2.92;1.85;;;;;;;5.98;100.00;96176.81;5034559;28;20407;-77
2023/11/06 04:01:33;;;;;;;8.93;2.40;;;;;;;6.01;100.00;96182.38;5034859;28;20906;-77
2023/11/06 04:04:00;;;;;;;7.43;2.30;;;;;;;6.05;100.00;96182.66;5034671;28;20820;-77
2023/11/06 04:06:28;;;;;;;7.13;2.25;;;;;;;6.08;100.00;96182.97;5035733;28;20403;-78
2023/11/06 04:08:54;;;;;;;5.43;2.47;;;;;;;6.08;100.00;96188.22;5034420;28;20445;-78
2023/11/06 04:11:20;;;;;;;5.70;2.25;;;;;;;6.11;100.00;96189.53;5034707;28;20411;-78
2023/11/06 04:13:46;;;;;;;8.10;2.40;;;;;;;6.13;100.00;96195.31;5034903;28;20414;-78
2023/11/06 04:16:14;;;;;;;11.43;3.20;;;;;;;6.15;100.00;96196.66;5035458;28;20442;-78
2023/11/06 04:18:40;;;;;;;5.32;2.20;;;;;;;6.20;100.00;96195.91;5034272;28;20403;-78
2023/11/06 04:21:06;;;;;;;6.97;2.40;;;;;;;6.22;100.00;96202.50;5034233;28;20410;-78
2023/11/06 04:23:34;;;;;;;3.83;2.20;;;;;;;6.25;100.00;96214.31;5033919;28;20395;-78
2023/11/06 04:26:01;;;;;;;3.88;1.95;;;;;;;6.28;100.00;96213.84;5034610;28;20751;-78
2023/11/06 04:28:27;;;;;;;5.55;1.98;;;;;;;6.29;100.00;96214.63;5035274;28;20399;-78
2023/11/06 04:30:53;;;;;;;9.60;2.33;;;;;;;6.30;100.00;96214.38;5035860;28;20399;-77
2023/11/06 04:33:19;;;;;;;4.07;2.00;;;;;;;6.32;100.00;96222.00;5022229;28;20424;-78
2023/11/06 04:35:45;;;;;;;2.92;1.70;;;;;;;6.32;100.00;96216.72;5013872;28;20482;-78
2023/11/06 04:38:11;;;;;;;2.78;1.50;;;;;;;6.32;100.00;96224.63;5014050;28;20401;-78
2023/11/06 04:40:39;;;;;;;3.50;1.70;;;;;;;6.31;100.00;96220.44;5014065;28;20551;-78
2023/11/06 04:43:05;;;;;;;2.00;1.60;;;;;;;6.28;100.00;96223.56;5013652;28;20441;-77
2023/11/06 04:45:31;;;;;;;3.25;1.50;;;;;;;6.18;100.00;96217.16;5031391;28;20436;-77
2023/11/06 04:47:57;;;;;;;1.93;1.40;;;;;;;6.07;100.00;96214.72;5000564;28;20399;-78
2023/11/06 04:50:24;;;;;;;2.00;1.60;;;;;;;5.95;100.00;96219.34;5024810;28;20415;-78
2023/11/06 04:52:50;;;;;;;1.80;1.70;;;;;;;5.84;100.00;96214.00;5027858;28;20456;-78
2023/11/06 04:55:17;;;;;;;4.55;1.52;;;;;;;5.76;100.00;96218.91;5024056;28;20873;-77
2023/11/06 04:57:44;;;;;;;2.10;1.60;;;;;;;5.67;100.00;96228.25;5021015;28;20429;-78
2023/11/06 05:00:11;;;;;;;3.38;1.50;;;;;;;5.60;100.00;96246.03;5025364;28;20447;-77
2023/11/06 05:02:38;;;;;;;8.63;2.40;;;;;;;5.55;100.00;96246.78;5026522;28;20415;-79
2023/11/06 05:05:06;;;;;;;3.58;2.00;;;;;;;5.51;100.00;96242.25;5029849;28;20816;-78
2023/11/06 05:07:32;;;;;;;5.43;2.03;;;;;;;5.46;100.00;96245.63;5027276;28;20409;-78
2023/11/06 05:09:58;;;;;;;4.45;1.92;;;;;;;5.39;100.00;96245.81;5027050;28;20437;-78
2023/11/06 05:12:24;;;;;;;4.13;1.98;;;;;;;5.34;100.00;96250.19;5028504;28;20918;-80
2023/11/06 05:14:52;;;;;;;3.30;1.80;;;;;;;5.27;100.00;96249.59;5028591;28;20979;-78
2023/11/06 05:17:19;;;;;;;5.07;2.30;;;;;;;5.24;100.00;96247.47;5022875;28;20432;-79
2023/11/06 05:19:45;;;;;;;3.55;2.00;;;;;;;5.24;100.00;96253.53;5023791;28;20420;-79
2023/11/06 05:22:12;;;;;;;2.83;1.70;;;;;;;5.27;100.00;96249.59;5026043;28;20403;-79
2023/11/06 05:24:41;;;;;;;4.35;1.70;;;;;;;5.27;100.00;96253.03;5025398;28;20397;-77
2023/11/06 05:27:07;;;;;;;2.83;1.70;;;;;;;5.26;100.00;96264.53;5023410;28;20491;-78
2023/11/06 05:29:33;;;;;;;2.45;1.95;;;;;;;5.24;100.00;96265.84;5021885;28;20449;-78
2023/11/06 05:32:01;;;;;;;4.10;2.10;;;;;;;5.19;100.00;96266.56;5024884;28;20773;-78
2023/11/06 05:34:27;;;;;;;5.25;2.38;;;;;;;5.13;100.00;96272.00;5025177;28;20462;-78
2023/11/06 05:36:53;;;;;;;3.55;1.70;;;;;;;5.07;100.00;96276.38;5037978;28;20429;-77
2023/11/06 05:39:19;;;;;;;3.42;1.88;;;;;;;5.02;100.00;96277.13;5037445;28;20426;-78
2023/11/06 05:41:48;;;;;;;4.32;2.03;;;;;;;4.98;100.00;96276.00;5038941;28;20414;-78
2023/11/06 05:44:15;;;;;;;10.60;2.80;;;;;;;5.02;100.00;96263.22;5020225;28;20534;-78
2023/11/06 05:46:43;;;;;;;4.38;2.40;;;;;;;5.06;100.00;96286.09;5037495;28;20418;-78
2023/11/06 05:49:10;;;;;;;2.42;1.95;;;;;;;5.04;100.00;96282.91;5035494;28;20910;-77
2023/11/06 05:51:36;;;;;;;5.28;2.10;;;;;;;5.01;100.00;96291.28;5033236;28;20399;-77
2023/11/06 05:54:03;;;;;;;3.38;2.05;;;;;;;4.98;100.00;96288.31;5034178;28;20427;-77
2023/11/06 05:56:29;;;;;;;3.00;1.80;;;;;;;4.93;100.00;96286.44;5034296;28;20437;-77
2023/11/06 05:58:55;;;;;;;3.28;1.90;;;;;;;4.88;100.00;96289.00;5034203;28;20407;-77
2023/11/06 06:01:21;;;;;;;3.40;1.80;;;;;;;4.83;100.00;96291.53;5034135;28;20407;-78
2023/11/06 06:03:48;;;;;;;2.33;1.77;;;;;;;4.80;100.00;96304.34;5035919;28;20453;-77
2023/11/06 06:06:16;;;;;;;2.30;1.80;;;;;;;4.76;100.00;96308.47;5034378;28;20403;-77
2023/11/06 06:08:42;;;;;;;6.70;1.95;;;;;;;4.72;100.00;96310.00;5034287;28;20403;-77
2023/11/06 06:11:09;;;;;;;3.65;1.98;;;;;;;4.70;100.00;96314.69;5034374;28;20407;-77
2023/11/06 06:13:35;;;;;;;2.50;1.90;;;;;;;4.66;100.00;96314.38;5033645;28;20418;-78
2023/11/06 06:16:02;;;;;;;3.10;1.95;;;;;;;4.65;100.00;96318.03;5034073;28;20399;-77
2023/11/06 06:18:29;;;;;;;3.85;1.83;;;;;;;4.63;100.00;96320.88;5034595;28;20930;-77
2023/11/06 06:20:55;;;;;;;4.20;2.00;;;;;;;4.64;100.00;96325.09;5033827;28;20434;-78
2023/11/06 06:23:22;;;;;;;3.20;1.90;;;;;;;4.65;100.00;96325.88;5035941;28;20407;-77
2023/11/06 06:25:49;;;;;;;2.10;1.90;;;;;;;4.66;100.00;96325.63;5035355;28;20461;-78
2023/11/06 06:28:15;;;;;;;3.20;1.90;;;;;;;4.67;100.00;96326.41;5035894;28;20406;-78
2023/11/06 06:30:41;;;;;;;2.13;1.80;;;;;;;4.70;100.00;96333.81;5035367;28;20399;-78
2023/11/06 06:33:07;;;;;;;4.05;1.80;;;;;;;4.74;100.00;96336.75;5025794;28;20413;-77
2023/11/06 06:35:33;;;;;;;2.60;1.83;;;;;;;4.74;100.00;96342.78;5015312;28;20512;-77
2023/11/06 06:38:00;;;;;;;2.45;1.60;;;;;;;4.73;100.00;96337.81;5014589;28;20742;-77
2023/11/06 06:40:28;;;;;;;3.55;1.90;;;;;;;4.68;100.00;96347.16;5015416;28;20891;-77
2023/11/06 06:42:54;;;;;;;4.70;2.00;;;;;;;4.65;100.00;96350.28;5013826;28;20455;-77
2023/11/06 06:45:20;;;;;;;2.22;1.73;;;;;;;4.62;100.00;96363.84;5030747;28;20395;-77
2023/11/06 06:47:46;;;;;;;5.47;1.85;;;;;;;4.59;100.00;96366.13;5033377;28;20598;-77
2023/11/06 06:50:12;;;;;;;2.28;1.95;;;;;;;4.56;100.00;96370.03;5034047;28;20463;-77
2023/11/06 06:52:38;;;;;;;4.43;1.77;;;;;;;4.56;100.00;96364.81;5031753;28;20980;-77
2023/11/06 06:55:06;;;;;;;4.43;1.90;;;;;;;4.54;100.00;96366.84;5033295;28;20409;-77
2023/11/06 06:57:33;;;;;;;3.85;1.90;;;;;;;4.54;100.00;96371.31;5036978;28;20423;-79
2023/11/06 06:59:59;;;;;;;1.98;1.88;;;;;;;4.53;100.00;96373.13;5035852;28;20426;-79
2023/11/06 07:02:25;;;;;;;2.85;1.90;;;;;;;4.53;100.00;96374.94;5042735;28;20411;-78
2023/11/06 07:04:51;;;;;;;2.60;1.90;;;;;;;4.52;100.00;96383.84;5036858;28;20423;-78
2023/11/06 07:07:18;;;;;;;3.78;2.10;;;;;;;4.53;100.00;96367.09;5036371;28;20391;-78
2023/11/06 07:09:44;;;;;;;2.90;1.90;;;;;;;4.53;100.00;96383.59;5040233;28;20391;-83
2023/11/06 07:12:10;;;;;;;5.10;2.33;;;;;;;4.54;100.00;96372.09;5038041;28;20430;-81
2023/11/06 07:14:38;;;;;;;4.90;2.00;;;;;;;4.56;100.00;96393.63;5040422;28;20400;-80
2023/11/06 07:17:04;;;;;;;2.42;1.90;;;;;;;4.58;100.00;96390.78;5044981;28;20959;-80
2023/11/06 07:19:31;;;;;;;3.45;1.90;;;;;;;4.59;100.00;96392.34;5039368;28;20457;-80
2023/11/06 07:21:57;;;;;;;4.72;2.10;;;;;;;4.60;100.00;96392.09;5020138;28;20434;-79
2023/11/06 07:24:26;;;;;;;2.47;1.93;;;;;;;4.64;100.00;96393.25;5030613;28;20464;-76
2023/11/06 07:26:53;;;;;;;3.45;1.80;;;;;;;4.73;100.00;96398.88;5019196;28;20742;-76
2023/11/06 07:29:20;;;;;;;3.00;2.08;;;;;;;4.78;100.00;96396.34;5029720;28;20434;-76
2023/11/06 07:31:50;;;;;;;2.00;1.80;;;;;;;4.85;100.00;96398.78;5035964;28;20828;-78
2023/11/06 07:34:16;;;;;;;5.40;2.00;;;;;;;4.90;100.00;96404.09;5036568;28;20887;-78
2023/11/06 07:36:43;;;;;;;3.40;2.00;;;;;;;4.93;100.00;96401.03;5034230;28;20758;-78
2023/11/06 07:39:09;;;;;;;6.40;2.53;;;;;;;5.01;100.00;96408.50;5036697;28;20406;-80
2023/11/06 07:41:35;;;;;;;7.60;2.60;;;;;;;5.16;100.00;96413.97;5038957;28;20404;-80
2023/11/06 07:44:01;;;;;;;3.23;2.07;;;;;;;5.27;100.00;96412.25;5040760;28;20490;-81
2023/11/06 07:46:27;;;;;;;3.15;2.10;;;;;;;5.32;100.00;96414.97;5040211;28;20855;-80
2023/11/06 07:48:55;;;;;;;4.50;1.95;;;;;;;5.38;100.00;96420.06;5038707;28;20433;-80
2023/11/06 07:51:21;;;;;;;10.20;2.60;;;;;;;5.44;100.00;96426.97;5039912;28;20447;-79
2023/11/06 07:53:47;;;;;;;3.63;2.15;;;;;;;5.53;100.00;96421.28;5039908;28;20429;-80
2023/11/06 07:56:16;;;;;;;4.95;2.20;;;;;;;5.62;100.00;96419.84;5038544;28;20435;-80
2023/11/06 07:58:42;;;;;;;9.35;3.00;;;;;;;5.65;100.00;96416.72;5039227;28;20436;-80
2023/11/06 08:01:08;;;;;;;8.63;3.30;;;;;;;5.69;100.00;96416.00;5039673;28;20395;-80
2023/11/06 08:03:34;;;;;;;6.22;2.53;;;;;;;5.78;100.00;96411.91;5039966;28;20724;-80
2023/11/06 08:06:02;;;;;;;8.52;3.00;;;;;;;5.84;100.00;96407.53;5044146;28;20399;-80
2023/11/06 08:08:29;;;;;;;5.20;2.40;;;;;;;5.97;100.00;96419.50;5032573;28;20395;-81
2023/11/06 08:10:55;;;;;;;5.55;2.10;;;;;;;6.06;100.00;96412.78;5037819;28;20410;-80
2023/11/06 08:13:21;;;;;;;3.75;1.92;;;;;;;6.15;100.00;96422.63;5037813;28;20423;-79
2023/11/06 08:15:48;;;;;;;6.78;2.35;;;;;;;6.26;100.00;96422.72;5038675;28;20400;-80
2023/11/06 08:18:14;;;;;;;5.13;2.17;;;;;;;6.48;100.00;96426.09;5038004;28;20429;-80
2023/11/06 08:20:40;;;;;;;3.47;1.70;;;;;;;6.85;100.00;96428.78;5038658;28;20391;-80
2023/11/06 08:23:08;;;;;;;5.00;1.40;;;;;;;7.10;100.00;96429.00;5037470;28;20490;-80
2023/11/06 08:25:34;;;;;;;2.75;1.50;;;;;;;7.24;100.00;96427.53;5038713;28;20794;-81
2023/11/06 08:28:01;;;;;;;5.65;1.50;;;;;;;7.28;100.00;96436.53;5020901;28;20406;-81
2023/11/06 08:30:27;;;;;;;1.88;1.27;;;;;;;7.27;100.00;96442.03;5039024;28;20434;-80
2023/11/06 08:32:53;;;;;;;1.30;1.20;;;;;;;7.27;100.00;96439.41;5014477;28;20455;-80
2023/11/06 08:35:21;;;;;;;2.58;1.30;;;;;;;7.56;100.00;96439.84;5029353;28;20426;-79
2023/11/06 08:37:47;;;;;;;1.88;1.30;;;;;;;8.12;100.00;96438.25;5040558;28;20489;-79
2023/11/06 08:40:17;;;;;;;2.38;1.10;;;;;;;8.64;100.00;96440.03;5040383;28;20414;-79
2023/11/06 08:42:44;;;;;;;5.28;1.70;;;;;;;8.95;100.00;96451.41;5020812;28;20411;-79
2023/11/06 08:45:11;;;;;;;5.90;1.70;;;;;;;8.94;100.00;96455.91;5040637;28;20838;-81
2023/11/06 08:47:37;;;;;;;7.47;1.40;;;;;;;9.26;100.00;96458.25;5039935;28;20399;-79
2023/11/06 08:50:03;;;;;;;3.50;1.33;;;;;;;9.49;100.00;96459.56;5039464;28;20478;-81
2023/11/06 08:52:29;;;;;;;3.08;1.20;;;;;;;9.59;100.00;96462.19;5038188;28;20422;-81
2023/11/06 08:54:56;;;;;;;2.28;1.05;;;;;;;9.39;100.00;96470.16;5038658;28;20414;-80
2023/11/06 08:57:23;;;;;;;4.63;1.17;;;;;;;9.04;100.00;96469.09;5038478;28;20403;-80
2023/11/06 08:59:50;;;;;;;5.47;1.50;;;;;;;8.60;100.00;96474.03;5038653;28;20392;-80
2023/11/06 09:02:16;;;;;;;5.72;1.30;;;;;;;8.36;100.00;96471.06;5038624;28;20417;-80
2023/11/06 09:04:45;;;;;;;13.30;1.55;;;;;;;8.24;100.00;96478.38;5038941;28;20395;-80
2023/11/06 09:07:12;;;;;;;3.05;1.13;;;;;;;8.32;100.00;96479.75;5044249;28;20406;-80
2023/11/06 09:09:40;;;;;;;4.22;1.33;;;;;;;8.51;100.00;96483.50;5045046;28;20395;-81
2023/11/06 09:12:07;;;;;;;1.73;1.00;;;;;;;8.79;100.00;96485.72;5045205;28;20399;-81
2023/11/06 09:14:34;;;;;;;1.63;1.05;;;;;;;9.03;100.00;96485.19;5044340;28;20391;-79
2023/11/06 09:17:02;;;;;;;3.20;1.23;;;;;;;9.35;100.00;96485.72;5044073;28;20395;-80
2023/11/06 09:19:28;;;;;;;1.40;0.93;;;;;;;9.80;100.00;96484.88;5042587;28;20444;-80
2023/11/06 09:21:54;;;;;;;2.80;1.00;;;;;;;10.00;100.00;96484.81;5042447;28;20410;-80
2023/11/06 09:24:21;;;;;;;1.80;0.90;;;;;;;10.08;100.00;96486.13;5041850;28;20418;-80
2023/11/06 09:26:47;;;;;;;2.80;1.00;;;;;;;10.12;100.00;96497.75;5041577;28;20418;-80
2023/11/06 09:29:13;;;;;;;0.95;0.82;;;;;;;10.34;100.00;96500.09;5042488;28;20399;-80
2023/11/06 09:31:41;;;;;;;4.80;2.00;;;;;;;10.39;100.00;96500.84;5042774;28;20406;-81
2023/11/06 09:34:07;;;;;;;1.77;1.00;;;;;;;10.70;100.00;96500.72;5026891;28;20915;-80
2023/11/06 09:36:33;;;;;;;2.50;1.13;;;;;;;11.12;100.00;96501.00;5043536;28;20403;-80
2023/11/06 09:38:59;;;;;;;2.72;1.02;;;;;;;11.53;100.00;96504.09;5042264;28;20395;-81
2023/11/06 09:41:25;;;;;;;3.67;1.30;;;;;;;11.70;100.00;96509.00;5046831;28;20434;-81
2023/11/06 09:43:51;;;;;;;3.60;1.25;;;;;;;11.98;100.00;96496.81;5036442;28;20411;-80
2023/11/06 09:46:18;;;;;;;3.83;1.40;;;;;;;12.44;100.00;96499.75;5023500;28;20397;-78
2023/11/06 09:48:47;;;;;;;1.58;0.70;;;;;;;12.94;100.00;96492.97;5022972;28;20409;-80
2023/11/06 09:51:14;;;;;;;1.27;0.82;;;;;;;13.47;100.00;96500.72;5022212;28;20837;-80
2023/11/06 09:53:45;;;;;;;2.97;0.98;;;;;;;13.86;100.00;96495.78;5021767;28;20425;-79
2023/11/06 09:56:12;;;;;;;0.95;0.70;;;;;;;14.30;100.00;96497.09;5021454;28;20397;-81
2023/11/06 09:58:39;;;;;;;3.35;0.80;;;;;;;14.45;100.00;96504.81;5023080;28;20448;-81
2023/11/06 10:01:07;;;;;;;2.00;0.93;;;;;;;14.87;100.00;96506.34;5024934;28;20780;-81
2023/11/06 10:03:34;;;;;;;3.17;0.70;;;;;;;15.17;100.00;96509.44;5024477;28;20428;-80
2023/11/06 10:06:02;;;;;;;1.20;0.90;;;;;;;15.34;100.00;96513.00;5027301;28;20411;-81
2023/11/06 10:08:29;;;;;;;1.08;0.70;;;;;;;15.56;100.00;96506.94;5046120;28;20445;-81
2023/11/06 10:10:59;;;;;;;5.20;1.10;;;;;;;15.57;100.00;96479.16;5050772;28;20399;-79
2023/11/06 10:13:25;;;;;;;3.80;0.90;;;;;;;15.78;100.00;96476.78;5052956;28;20415;-79
2023/11/06 10:15:52;;;;;;;1.23;0.68;;;;;;;15.97;100.00;96472.00;5048903;28;20403;-81
2023/11/06 10:18:19;;;;;;;6.28;1.17;;;;;;;15.78;100.00;96482.13;5040647;28;20427;-81
2023/11/06 10:20:48;;;;;;;1.55;0.90;;;;;;;15.70;100.00;96480.19;5038282;28;20395;-82
2023/11/06 10:23:24;;;;;;;3.35;0.95;;;;;;;15.47;100.00;96479.38;5033900;28;20408;-79
2023/11/06 10:25:51;;;;;;;4.00;1.00;;;;;;;14.93;100.00;96472.38;5020139;28;20872;-78
2023/11/06 10:28:19;;;;;;;1.15;0.70;;;;;;;14.96;100.00;96471.78;5030590;28;20759;-81
2023/11/06 10:30:46;;;;;;;1.30;0.80;;;;;;;15.33;100.00;96482.13;5032960;28;20392;-80
2023/11/06 10:33:13;;;;;;;3.47;1.20;;;;;;;15.47;100.00;96488.19;5039243;28;20428;-80
2023/11/06 10:35:39;;;;;;;4.30;1.40;;;;;;;15.62;100.00;96473.72;5038169;28;20395;-81
2023/11/06 10:38:06;;;;;;;1.25;0.88;;;;;;;15.55;100.00;96477.91;5037560;28;20417;-81
2023/11/06 10:40:35;;;;;;;3.10;1.10;;;;;;;15.16;100.00;96478.53;5027268;28;20433;-81
2023/11/06 10:43:03;;;;;;;4.95;0.82;;;;;;;14.45;100.00;96480.84;5039516;28;20445;-79
2023/11/06 10:45:31;;;;;;;2.30;1.08;;;;;;;13.89;100.00;96481.91;5035204;28;20743;-82
2023/11/06 10:48:09;;;;;;;2.33;1.00;;;;;;;13.41;100.00;96483.25;5035740;28;20786;-80
2023/11/06 10:50:37;;;;;;;1.55;0.90;;;;;;;13.27;100.00;96472.59;5038621;28;20780;-80
2023/11/06 10:53:06;;;;;;;0.98;0.80;;;;;;;13.34;100.00;96482.84;5043219;28;20450;-80
2023/11/06 10:55:34;;;;;;;1.58;0.80;;;;;;;13.24;100.00;96473.16;5040383;28;20437;-78
2023/11/06 10:58:03;;;;;;;1.42;1.00;;;;;;;13.52;100.00;96469.53;5039044;28;20422;-79
2023/11/06 11:00:31;;;;;;;2.22;0.98;;;;;;;13.51;100.00;96467.94;5036412;28;20391;-79
2023/11/06 11:03:01;;;;;;;4.20;1.10;;;;;;;13.12;100.00;96468.28;5038414;28;20435;-79
2023/11/06 11:05:28;;;;;;;1.80;1.00;;;;;;;12.79;100.00;96475.38;5023066;28;20403;-79
2023/11/06 11:07:56;;;;;;;1.80;0.88;;;;;;;12.35;100.00;96481.00;5039834;28;20401;-78
2023/11/06 11:10:27;;;;;;;1.37;0.90;;;;;;;11.90;100.00;96476.22;5039814;28;20400;-79
2023/11/06 11:12:58;;;;;;;2.67;1.00;;;;;;;11.48;100.00;96475.00;5041715;28;20410;-79
2023/11/06 11:15:26;;;;;;;1.90;1.10;;;;;;;11.27;100.00;96483.41;5038047;28;20473;-79
2023/11/06 11:17:57;;;;;;;4.43;1.30;;;;;;;11.06;100.00;96472.94;5020264;28;20422;-79
2023/11/06 11:20:23;;;;;;;2.83;0.90;;;;;;;11.03;100.00;96478.03;5035499;28;20407;-78
2023/11/06 11:23:10;;;;;;;1.25;0.90;;;;;;;11.07;100.00;96486.97;5036517;28;20403;-78
2023/11/06 11:25:56;;;;;;;1.13;0.85;;;;;;;11.11;100.00;96483.53;5036513;28;20399;-78
2023/11/06 11:28:26;;;;;;;4.50;1.10;;;;;;;11.12;100.00;96489.63;5036708;28;20395;-78
2023/11/06 11:30:53;;;;;;;1.42;1.05;;;;;;;11.09;100.00;96493.59;5037898;28;20403;-78